Portada
METAR-TAF:

METAR-TAF

Aeroports :

Ribeirão Preto, São Paulo, Brasil

latitud: 21-08S, longitud: 047-47W, altitud: 549 m

Observació

L'informe es va fer fa 8 minuts, a les 22:00 UTC
Vent 9 kt del Sud/Sud-Est
Temperatura 22°C
Humitat 35%
Pressió 1020 hPa
Visibilitat 10 km o més
sense núvols per sota de 1500 mi sense presència de cumulonimbus.

METAR: SBRP 242200Z 16009KT CAVOK 22/06 Q1020

Hora: 19:08 (22:08 UTC)

Pronòstic

L'informe es va fer fa 5 hores i 28 minuts, a les 16:40 UTC
Pronòstic vàlid del 24 a les 18 UTC al 25 a les 06 UTC
Vent 5 kt del Sud
Visibilitat 10 km o més
sense núvols per sota de 1500 mi sense presència de cumulonimbus.

TAF: SBRP 241640Z 2418/2506 17005KT CAVOK TX28/2418Z TN14/2505Z RMK PGL

Observacions i pronòstics meteorològics de més de 4000 aeroports (METAR i TAF).

Les estacions disponibles són els punts grocs i vermells al mapa.

Posi el ratolí al punt desitjat per veure el nom de l'estació.

Feu clic per veure les observacions i els pronòstics meteorològics.

Per canviar el mapa: feu clic els botons verds amb una creu de color negre per apropar; al botó verd amb un guió per allunyar la imatge; o en les fletxes verdes per a mapes adjacents.


METAR-TAF: